sensor_id;sensor_type;location;lat;lon;timestamp;P1;durP1;ratioP1;P2;durP2;ratioP2
68989;SDS011;56046;47.270;11.368;2022-11-11T00:00:27;6.83;;;3.40;;
68989;SDS011;56046;47.270;11.368;2022-11-11T00:02:56;8.70;;;3.58;;
68989;SDS011;56046;47.270;11.368;2022-11-11T00:05:22;8.83;;;3.70;;
68989;SDS011;56046;47.270;11.368;2022-11-11T00:07:53;8.15;;;3.90;;
68989;SDS011;56046;47.270;11.368;2022-11-11T00:10:26;12.98;;;4.43;;
68989;SDS011;56046;47.270;11.368;2022-11-11T00:12:52;9.13;;;4.00;;
68989;SDS011;56046;47.270;11.368;2022-11-11T00:15:18;17.50;;;6.47;;
68989;SDS011;56046;47.270;11.368;2022-11-11T00:17:43;64.13;;;7.50;;
68989;SDS011;56046;47.270;11.368;2022-11-11T00:20:27;17.67;;;6.28;;
68989;SDS011;56046;47.270;11.368;2022-11-11T00:23:21;48.22;;;7.95;;
68989;SDS011;56046;47.270;11.368;2022-11-11T00:26:06;41.47;;;7.35;;
68989;SDS011;56046;47.270;11.368;2022-11-11T00:28:33;32.42;;;6.55;;
68989;SDS011;56046;47.270;11.368;2022-11-11T00:31:02;24.90;;;6.83;;
68989;SDS011;56046;47.270;11.368;2022-11-11T00:33:33;29.83;;;6.20;;
68989;SDS011;56046;47.270;11.368;2022-11-11T00:35:58;28.07;;;6.50;;
68989;SDS011;56046;47.270;11.368;2022-11-11T00:38:25;33.05;;;5.97;;
68989;SDS011;56046;47.270;11.368;2022-11-11T00:41:09;21.02;;;6.05;;
68989;SDS011;56046;47.270;11.368;2022-11-11T00:43:36;23.23;;;6.68;;
68989;SDS011;56046;47.270;11.368;2022-11-11T00:46:02;15.13;;;5.30;;
68989;SDS011;56046;47.270;11.368;2022-11-11T00:48:46;22.52;;;5.53;;
68989;SDS011;56046;47.270;11.368;2022-11-11T00:51:30;22.03;;;5.50;;
68989;SDS011;56046;47.270;11.368;2022-11-11T00:53:55;24.02;;;5.10;;
68989;SDS011;56046;47.270;11.368;2022-11-11T00:56:21;45.53;;;6.67;;
68989;SDS011;56046;47.270;11.368;2022-11-11T00:58:48;32.13;;;6.55;;
68989;SDS011;56046;47.270;11.368;2022-11-11T01:01:13;36.47;;;5.73;;
68989;SDS011;56046;47.270;11.368;2022-11-11T01:03:49;40.13;;;6.78;;
68989;SDS011;56046;47.270;11.368;2022-11-11T01:06:14;69.43;;;6.73;;
68989;SDS011;56046;47.270;11.368;2022-11-11T01:08:40;110.68;;;9.27;;
68989;SDS011;56046;47.270;11.368;2022-11-11T01:11:13;35.20;;;5.87;;
68989;SDS011;56046;47.270;11.368;2022-11-11T01:13:40;30.38;;;5.85;;
68989;SDS011;56046;47.270;11.368;2022-11-11T01:16:06;13.10;;;5.20;;
68989;SDS011;56046;47.270;11.368;2022-11-11T01:18:33;9.20;;;4.38;;
68989;SDS011;56046;47.270;11.368;2022-11-11T01:23:30;8.57;;;4.82;;
68989;SDS011;56046;47.270;11.368;2022-11-11T01:26:01;9.57;;;4.90;;
68989;SDS011;56046;47.270;11.368;2022-11-11T01:28:48;11.27;;;4.78;;
68989;SDS011;56046;47.270;11.368;2022-11-11T01:31:18;23.00;;;6.00;;
68989;SDS011;56046;47.270;11.368;2022-11-11T01:33:45;19.53;;;6.77;;
68989;SDS011;56046;47.270;11.368;2022-11-11T01:36:13;13.90;;;5.88;;
68989;SDS011;56046;47.270;11.368;2022-11-11T01:38:43;16.20;;;6.13;;
68989;SDS011;56046;47.270;11.368;2022-11-11T01:41:14;18.13;;;6.53;;
68989;SDS011;56046;47.270;11.368;2022-11-11T01:59:58;27.07;;;5.53;;
68989;SDS011;56046;47.270;11.368;2022-11-11T02:02:30;56.47;;;6.72;;
68989;SDS011;56046;47.270;11.368;2022-11-11T02:05:03;49.35;;;6.70;;
68989;SDS011;56046;47.270;11.368;2022-11-11T02:07:49;26.45;;;5.38;;
68989;SDS011;56046;47.270;11.368;2022-11-11T02:10:17;129.43;;;10.40;;
68989;SDS011;56046;47.270;11.368;2022-11-11T02:12:46;82.38;;;7.13;;
68989;SDS011;56046;47.270;11.368;2022-11-11T02:15:29;51.27;;;6.87;;
68989;SDS011;56046;47.270;11.368;2022-11-11T02:17:55;92.45;;;7.93;;
68989;SDS011;56046;47.270;11.368;2022-11-11T02:20:22;73.40;;;7.53;;
68989;SDS011;56046;47.270;11.368;2022-11-11T02:25:25;99.93;;;7.53;;
68989;SDS011;56046;47.270;11.368;2022-11-11T02:27:56;29.13;;;5.20;;
68989;SDS011;56046;47.270;11.368;2022-11-11T02:30:24;32.88;;;5.78;;
68989;SDS011;56046;47.270;11.368;2022-11-11T02:32:50;44.92;;;5.43;;
68989;SDS011;56046;47.270;11.368;2022-11-11T02:37:44;52.70;;;6.40;;
68989;SDS011;56046;47.270;11.368;2022-11-11T02:40:13;35.58;;;6.28;;
68989;SDS011;56046;47.270;11.368;2022-11-11T02:42:45;36.78;;;5.20;;
68989;SDS011;56046;47.270;11.368;2022-11-11T02:45:11;18.07;;;4.97;;
68989;SDS011;56046;47.270;11.368;2022-11-11T02:47:36;25.55;;;5.20;;
68989;SDS011;56046;47.270;11.368;2022-11-11T02:50:02;100.97;;;8.63;;
68989;SDS011;56046;47.270;11.368;2022-11-11T02:52:28;26.73;;;4.88;;
68989;SDS011;56046;47.270;11.368;2022-11-11T02:54:53;73.93;;;7.70;;
68989;SDS011;56046;47.270;11.368;2022-11-11T02:57:19;96.80;;;7.97;;
68989;SDS011;56046;47.270;11.368;2022-11-11T02:59:45;142.38;;;9.82;;
68989;SDS011;56046;47.270;11.368;2022-11-11T03:02:10;99.10;;;7.17;;
68989;SDS011;56046;47.270;11.368;2022-11-11T03:04:36;41.27;;;5.33;;
68989;SDS011;56046;47.270;11.368;2022-11-11T03:07:02;120.80;;;8.13;;
68989;SDS011;56046;47.270;11.368;2022-11-11T03:09:28;39.55;;;6.22;;
68989;SDS011;56046;47.270;11.368;2022-11-11T03:11:54;48.23;;;5.60;;
68989;SDS011;56046;47.270;11.368;2022-11-11T03:14:19;71.82;;;6.88;;
68989;SDS011;56046;47.270;11.368;2022-11-11T03:16:45;121.07;;;9.07;;
68989;SDS011;56046;47.270;11.368;2022-11-11T03:19:29;87.45;;;7.80;;
68989;SDS011;56046;47.270;11.368;2022-11-11T03:21:54;164.83;;;9.10;;
68989;SDS011;56046;47.270;11.368;2022-11-11T03:24:20;68.33;;;6.17;;
68989;SDS011;56046;47.270;11.368;2022-11-11T03:26:46;31.65;;;4.88;;
68989;SDS011;56046;47.270;11.368;2022-11-11T03:29:12;10.97;;;3.50;;
68989;SDS011;56046;47.270;11.368;2022-11-11T03:31:37;9.98;;;3.60;;
68989;SDS011;56046;47.270;11.368;2022-11-11T03:34:03;13.60;;;4.23;;
68989;SDS011;56046;47.270;11.368;2022-11-11T03:36:43;58.90;;;5.82;;
68989;SDS011;56046;47.270;11.368;2022-11-11T03:39:28;22.67;;;4.60;;
68989;SDS011;56046;47.270;11.368;2022-11-11T03:41:54;89.47;;;7.70;;
68989;SDS011;56046;47.270;11.368;2022-11-11T03:44:21;82.88;;;8.25;;
68989;SDS011;56046;47.270;11.368;2022-11-11T03:46:46;253.50;;;13.60;;
68989;SDS011;56046;47.270;11.368;2022-11-11T03:49:11;280.77;;;14.93;;
68989;SDS011;56046;47.270;11.368;2022-11-11T03:51:37;141.32;;;11.90;;
68989;SDS011;56046;47.270;11.368;2022-11-11T03:54:03;166.53;;;10.10;;
68989;SDS011;56046;47.270;11.368;2022-11-11T03:56:28;113.67;;;8.50;;
68989;SDS011;56046;47.270;11.368;2022-11-11T03:58:53;191.67;;;9.57;;
68989;SDS011;56046;47.270;11.368;2022-11-11T04:01:19;177.80;;;11.93;;
68989;SDS011;56046;47.270;11.368;2022-11-11T04:04:03;107.05;;;8.02;;
68989;SDS011;56046;47.270;11.368;2022-11-11T04:06:47;113.53;;;7.43;;
68989;SDS011;56046;47.270;11.368;2022-11-11T04:09:30;86.75;;;6.85;;
68989;SDS011;56046;47.270;11.368;2022-11-11T04:12:14;97.43;;;7.20;;
68989;SDS011;56046;47.270;11.368;2022-11-11T04:14:40;116.03;;;7.50;;
68989;SDS011;56046;47.270;11.368;2022-11-11T04:17:24;53.78;;;5.07;;
68989;SDS011;56046;47.270;11.368;2022-11-11T04:19:50;51.50;;;6.23;;
68989;SDS011;56046;47.270;11.368;2022-11-11T04:22:38;109.60;;;7.40;;
68989;SDS011;56046;47.270;11.368;2022-11-11T04:25:05;96.47;;;7.82;;
68989;SDS011;56046;47.270;11.368;2022-11-11T04:27:50;68.30;;;6.80;;
68989;SDS011;56046;47.270;11.368;2022-11-11T04:30:35;108.03;;;8.00;;
68989;SDS011;56046;47.270;11.368;2022-11-11T04:33:00;114.50;;;7.47;;
68989;SDS011;56046;47.270;11.368;2022-11-11T04:35:26;82.13;;;6.20;;
68989;SDS011;56046;47.270;11.368;2022-11-11T04:37:51;84.37;;;6.87;;
68989;SDS011;56046;47.270;11.368;2022-11-11T04:40:36;91.68;;;6.25;;
68989;SDS011;56046;47.270;11.368;2022-11-11T04:43:20;52.15;;;5.68;;
68989;SDS011;56046;47.270;11.368;2022-11-11T04:45:46;138.53;;;8.53;;
68989;SDS011;56046;47.270;11.368;2022-11-11T04:48:11;110.87;;;7.17;;
68989;SDS011;56046;47.270;11.368;2022-11-11T04:50:38;71.40;;;6.32;;
68989;SDS011;56046;47.270;11.368;2022-11-11T04:53:06;63.90;;;6.00;;
68989;SDS011;56046;47.270;11.368;2022-11-11T04:55:34;33.42;;;4.70;;
68989;SDS011;56046;47.270;11.368;2022-11-11T04:58:19;103.45;;;6.22;;
68989;SDS011;56046;47.270;11.368;2022-11-11T05:00:46;128.98;;;8.02;;
68989;SDS011;56046;47.270;11.368;2022-11-11T05:03:12;49.57;;;4.87;;
68989;SDS011;56046;47.270;11.368;2022-11-11T05:05:48;105.90;;;19.83;;
68989;SDS011;56046;47.270;11.368;2022-11-11T05:08:40;53.35;;;13.20;;
68989;SDS011;56046;47.270;11.368;2022-11-11T05:13:53;52.42;;;7.05;;
68989;SDS011;56046;47.270;11.368;2022-11-11T05:16:42;77.80;;;6.05;;
68989;SDS011;56046;47.270;11.368;2022-11-11T05:19:28;121.57;;;7.72;;
68989;SDS011;56046;47.270;11.368;2022-11-11T05:24:49;89.60;;;6.38;;
68989;SDS011;56046;47.270;11.368;2022-11-11T05:27:33;98.80;;;7.70;;
68989;SDS011;56046;47.270;11.368;2022-11-11T05:29:59;72.63;;;5.97;;
68989;SDS011;56046;47.270;11.368;2022-11-11T05:32:24;84.93;;;6.73;;
68989;SDS011;56046;47.270;11.368;2022-11-11T05:34:50;141.07;;;9.15;;
68989;SDS011;56046;47.270;11.368;2022-11-11T05:37:16;53.87;;;5.50;;
68989;SDS011;56046;47.270;11.368;2022-11-11T05:39:42;66.93;;;4.70;;
68989;SDS011;56046;47.270;11.368;2022-11-11T05:42:08;59.20;;;7.70;;
68989;SDS011;56046;47.270;11.368;2022-11-11T05:44:34;81.22;;;6.10;;
68989;SDS011;56046;47.270;11.368;2022-11-11T05:46:59;39.67;;;4.80;;
68989;SDS011;56046;47.270;11.368;2022-11-11T05:49:25;23.23;;;2.92;;
68989;SDS011;56046;47.270;11.368;2022-11-11T05:51:51;30.08;;;3.72;;
68989;SDS011;56046;47.270;11.368;2022-11-11T05:54:17;42.33;;;4.20;;
68989;SDS011;56046;47.270;11.368;2022-11-11T05:56:43;49.92;;;4.95;;
68989;SDS011;56046;47.270;11.368;2022-11-11T05:59:08;51.90;;;4.57;;
68989;SDS011;56046;47.270;11.368;2022-11-11T06:01:35;65.28;;;5.47;;
68989;SDS011;56046;47.270;11.368;2022-11-11T06:04:01;97.32;;;6.80;;
68989;SDS011;56046;47.270;11.368;2022-11-11T06:06:27;29.15;;;4.63;;
68989;SDS011;56046;47.270;11.368;2022-11-11T06:08:53;58.67;;;5.50;;
68989;SDS011;56046;47.270;11.368;2022-11-11T06:11:18;68.10;;;6.97;;
68989;SDS011;56046;47.270;11.368;2022-11-11T06:13:44;77.20;;;8.03;;
68989;SDS011;56046;47.270;11.368;2022-11-11T06:16:10;69.68;;;5.82;;
68989;SDS011;56046;47.270;11.368;2022-11-11T06:18:35;51.77;;;4.80;;
68989;SDS011;56046;47.270;11.368;2022-11-11T06:21:01;44.20;;;5.23;;
68989;SDS011;56046;47.270;11.368;2022-11-11T06:23:26;35.47;;;4.03;;
68989;SDS011;56046;47.270;11.368;2022-11-11T06:25:53;28.23;;;4.35;;
68989;SDS011;56046;47.270;11.368;2022-11-11T06:28:37;44.70;;;3.85;;
68989;SDS011;56046;47.270;11.368;2022-11-11T06:31:03;43.88;;;6.03;;
68989;SDS011;56046;47.270;11.368;2022-11-11T06:33:31;22.70;;;3.80;;
68989;SDS011;56046;47.270;11.368;2022-11-11T06:35:58;54.80;;;5.25;;
68989;SDS011;56046;47.270;11.368;2022-11-11T06:38:23;72.07;;;5.73;;
68989;SDS011;56046;47.270;11.368;2022-11-11T06:40:49;75.57;;;6.72;;
68989;SDS011;56046;47.270;11.368;2022-11-11T06:43:14;61.87;;;6.50;;
68989;SDS011;56046;47.270;11.368;2022-11-11T06:45:39;59.00;;;6.70;;
68989;SDS011;56046;47.270;11.368;2022-11-11T06:48:05;64.17;;;6.30;;
68989;SDS011;56046;47.270;11.368;2022-11-11T06:50:31;53.47;;;5.72;;
68989;SDS011;56046;47.270;11.368;2022-11-11T06:53:04;53.95;;;5.57;;
68989;SDS011;56046;47.270;11.368;2022-11-11T06:55:33;61.50;;;6.03;;
68989;SDS011;56046;47.270;11.368;2022-11-11T07:00:30;44.97;;;6.22;;
68989;SDS011;56046;47.270;11.368;2022-11-11T07:02:56;62.10;;;6.28;;
68989;SDS011;56046;47.270;11.368;2022-11-11T07:05:22;133.32;;;10.23;;
68989;SDS011;56046;47.270;11.368;2022-11-11T07:07:47;213.37;;;13.17;;
68989;SDS011;56046;47.270;11.368;2022-11-11T07:10:13;133.93;;;9.03;;
68989;SDS011;56046;47.270;11.368;2022-11-11T07:12:39;74.60;;;7.72;;
68989;SDS011;56046;47.270;11.368;2022-11-11T07:15:06;76.85;;;6.55;;
68989;SDS011;56046;47.270;11.368;2022-11-11T07:17:31;59.83;;;6.03;;
68989;SDS011;56046;47.270;11.368;2022-11-11T07:19:57;56.65;;;6.28;;
68989;SDS011;56046;47.270;11.368;2022-11-11T07:22:22;86.60;;;6.70;;
68989;SDS011;56046;47.270;11.368;2022-11-11T07:24:48;74.33;;;6.50;;
68989;SDS011;56046;47.270;11.368;2022-11-11T07:27:13;112.83;;;7.83;;
68989;SDS011;56046;47.270;11.368;2022-11-11T07:29:38;75.82;;;6.97;;
68989;SDS011;56046;47.270;11.368;2022-11-11T07:32:04;102.60;;;9.07;;
68989;SDS011;56046;47.270;11.368;2022-11-11T07:34:29;100.00;;;6.30;;
68989;SDS011;56046;47.270;11.368;2022-11-11T07:36:55;73.90;;;5.80;;
68989;SDS011;56046;47.270;11.368;2022-11-11T07:39:20;102.35;;;6.50;;
68989;SDS011;56046;47.270;11.368;2022-11-11T07:41:46;53.80;;;5.30;;
68989;SDS011;56046;47.270;11.368;2022-11-11T07:44:11;43.43;;;4.90;;
68989;SDS011;56046;47.270;11.368;2022-11-11T07:46:37;109.23;;;7.30;;
68989;SDS011;56046;47.270;11.368;2022-11-11T07:49:02;53.00;;;5.20;;
68989;SDS011;56046;47.270;11.368;2022-11-11T07:51:27;58.90;;;6.07;;
68989;SDS011;56046;47.270;11.368;2022-11-11T07:53:53;28.80;;;4.30;;
68989;SDS011;56046;47.270;11.368;2022-11-11T07:56:18;24.70;;;4.50;;
68989;SDS011;56046;47.270;11.368;2022-11-11T07:58:44;33.40;;;5.57;;
68989;SDS011;56046;47.270;11.368;2022-11-11T08:01:09;48.75;;;5.72;;
68989;SDS011;56046;47.270;11.368;2022-11-11T08:03:34;18.07;;;4.57;;
68989;SDS011;56046;47.270;11.368;2022-11-11T08:06:13;46.30;;;5.28;;
68989;SDS011;56046;47.270;11.368;2022-11-11T08:08:46;20.60;;;4.78;;
68989;SDS011;56046;47.270;11.368;2022-11-11T08:11:12;19.20;;;4.20;;
68989;SDS011;56046;47.270;11.368;2022-11-11T08:13:37;14.10;;;4.22;;
68989;SDS011;56046;47.270;11.368;2022-11-11T08:16:07;16.47;;;3.57;;
68989;SDS011;56046;47.270;11.368;2022-11-11T08:18:34;26.38;;;4.70;;
68989;SDS011;56046;47.270;11.368;2022-11-11T08:20:59;12.73;;;3.83;;
68989;SDS011;56046;47.270;11.368;2022-11-11T08:23:26;45.30;;;4.57;;
68989;SDS011;56046;47.270;11.368;2022-11-11T08:26:01;34.20;;;4.68;;
68989;SDS011;56046;47.270;11.368;2022-11-11T08:28:29;14.38;;;3.60;;
68989;SDS011;56046;47.270;11.368;2022-11-11T08:30:57;37.63;;;4.93;;
68989;SDS011;56046;47.270;11.368;2022-11-11T08:33:24;31.53;;;4.53;;
68989;SDS011;56046;47.270;11.368;2022-11-11T08:35:49;42.15;;;4.32;;
68989;SDS011;56046;47.270;11.368;2022-11-11T08:38:17;24.50;;;4.38;;
68989;SDS011;56046;47.270;11.368;2022-11-11T08:40:43;57.83;;;5.70;;
68989;SDS011;56046;47.270;11.368;2022-11-11T08:43:08;11.35;;;3.40;;
68989;SDS011;56046;47.270;11.368;2022-11-11T08:45:34;13.73;;;4.03;;
68989;SDS011;56046;47.270;11.368;2022-11-11T08:47:59;40.17;;;5.43;;
68989;SDS011;56046;47.270;11.368;2022-11-11T08:50:25;11.98;;;4.35;;
68989;SDS011;56046;47.270;11.368;2022-11-11T08:52:50;14.67;;;4.83;;
68989;SDS011;56046;47.270;11.368;2022-11-11T08:55:16;10.00;;;4.40;;
68989;SDS011;56046;47.270;11.368;2022-11-11T08:57:43;14.25;;;4.90;;
68989;SDS011;56046;47.270;11.368;2022-11-11T09:00:09;9.77;;;3.63;;
68989;SDS011;56046;47.270;11.368;2022-11-11T09:02:36;8.63;;;4.25;;
68989;SDS011;56046;47.270;11.368;2022-11-11T09:05:02;9.53;;;4.20;;
68989;SDS011;56046;47.270;11.368;2022-11-11T09:07:28;7.82;;;3.78;;
68989;SDS011;56046;47.270;11.368;2022-11-11T09:09:53;8.03;;;3.87;;
68989;SDS011;56046;47.270;11.368;2022-11-11T09:12:19;5.10;;;2.60;;
68989;SDS011;56046;47.270;11.368;2022-11-11T09:14:44;5.35;;;3.08;;
68989;SDS011;56046;47.270;11.368;2022-11-11T09:17:10;6.50;;;2.70;;
68989;SDS011;56046;47.270;11.368;2022-11-11T09:19:35;5.88;;;2.40;;
68989;SDS011;56046;47.270;11.368;2022-11-11T09:22:01;4.67;;;2.40;;
68989;SDS011;56046;47.270;11.368;2022-11-11T09:24:26;6.43;;;3.07;;
68989;SDS011;56046;47.270;11.368;2022-11-11T09:26:52;7.00;;;3.10;;
68989;SDS011;56046;47.270;11.368;2022-11-11T09:29:18;5.80;;;2.97;;
68989;SDS011;56046;47.270;11.368;2022-11-11T09:31:44;6.85;;;3.30;;
68989;SDS011;56046;47.270;11.368;2022-11-11T09:34:10;5.90;;;3.07;;
68989;SDS011;56046;47.270;11.368;2022-11-11T09:36:35;6.20;;;3.40;;
68989;SDS011;56046;47.270;11.368;2022-11-11T09:39:01;5.77;;;3.13;;
68989;SDS011;56046;47.270;11.368;2022-11-11T09:44:10;8.20;;;3.20;;
68989;SDS011;56046;47.270;11.368;2022-11-11T09:47:08;6.45;;;3.05;;
68989;SDS011;56046;47.270;11.368;2022-11-11T09:52:36;6.70;;;3.33;;
68989;SDS011;56046;47.270;11.368;2022-11-11T09:55:22;5.55;;;2.83;;
68989;SDS011;56046;47.270;11.368;2022-11-11T09:57:52;6.00;;;2.45;;
68989;SDS011;56046;47.270;11.368;2022-11-11T10:00:28;5.93;;;2.47;;
68989;SDS011;56046;47.270;11.368;2022-11-11T10:02:58;5.30;;;2.88;;
68989;SDS011;56046;47.270;11.368;2022-11-11T10:10:53;5.93;;;3.33;;
68989;SDS011;56046;47.270;11.368;2022-11-11T10:13:34;7.00;;;2.95;;
68989;SDS011;56046;47.270;11.368;2022-11-11T10:16:03;6.40;;;3.40;;
68989;SDS011;56046;47.270;11.368;2022-11-11T10:21:12;6.03;;;3.25;;
68989;SDS011;56046;47.270;11.368;2022-11-11T10:23:39;6.07;;;3.15;;
68989;SDS011;56046;47.270;11.368;2022-11-11T10:26:13;6.78;;;3.38;;
68989;SDS011;56046;47.270;11.368;2022-11-11T10:28:44;5.65;;;2.92;;
68989;SDS011;56046;47.270;11.368;2022-11-11T10:31:12;7.13;;;2.90;;
68989;SDS011;56046;47.270;11.368;2022-11-11T10:33:43;5.60;;;3.00;;
68989;SDS011;56046;47.270;11.368;2022-11-11T10:36:15;5.22;;;3.08;;
68989;SDS011;56046;47.270;11.368;2022-11-11T10:38:49;7.20;;;3.03;;
68989;SDS011;56046;47.270;11.368;2022-11-11T10:41:29;6.07;;;3.47;;
68989;SDS011;56046;47.270;11.368;2022-11-11T10:44:00;6.30;;;3.00;;
68989;SDS011;56046;47.270;11.368;2022-11-11T10:49:02;7.00;;;3.67;;
68989;SDS011;56046;47.270;11.368;2022-11-11T10:51:40;8.13;;;3.30;;
68989;SDS011;56046;47.270;11.368;2022-11-11T10:54:18;6.80;;;3.33;;
68989;SDS011;56046;47.270;11.368;2022-11-11T10:57:00;8.40;;;3.73;;
68989;SDS011;56046;47.270;11.368;2022-11-11T11:02:15;5.65;;;3.20;;
68989;SDS011;56046;47.270;11.368;2022-11-11T11:07:20;7.32;;;3.53;;
68989;SDS011;56046;47.270;11.368;2022-11-11T11:09:54;8.00;;;3.20;;
68989;SDS011;56046;47.270;11.368;2022-11-11T11:12:26;7.57;;;3.08;;
68989;SDS011;56046;47.270;11.368;2022-11-11T11:14:58;5.30;;;3.05;;
68989;SDS011;56046;47.270;11.368;2022-11-11T11:17:34;4.82;;;2.80;;
68989;SDS011;56046;47.270;11.368;2022-11-11T11:22:44;5.73;;;2.87;;
68989;SDS011;56046;47.270;11.368;2022-11-11T11:25:13;5.75;;;2.60;;
68989;SDS011;56046;47.270;11.368;2022-11-11T11:27:39;5.47;;;2.88;;
68989;SDS011;56046;47.270;11.368;2022-11-11T11:30:09;5.97;;;2.80;;
68989;SDS011;56046;47.270;11.368;2022-11-11T11:32:40;6.05;;;2.40;;
68989;SDS011;56046;47.270;11.368;2022-11-11T11:35:08;5.60;;;3.20;;
68989;SDS011;56046;47.270;11.368;2022-11-11T11:37:49;5.90;;;3.23;;
68989;SDS011;56046;47.270;11.368;2022-11-11T11:40:15;6.15;;;3.00;;
68989;SDS011;56046;47.270;11.368;2022-11-11T11:42:41;5.75;;;2.72;;
68989;SDS011;56046;47.270;11.368;2022-11-11T11:45:27;5.47;;;3.00;;
68989;SDS011;56046;47.270;11.368;2022-11-11T11:50:54;4.88;;;2.70;;
68989;SDS011;56046;47.270;11.368;2022-11-11T11:53:34;4.38;;;2.22;;
68989;SDS011;56046;47.270;11.368;2022-11-11T11:56:40;6.15;;;3.00;;
68989;SDS011;56046;47.270;11.368;2022-11-11T11:59:13;4.93;;;2.63;;
68989;SDS011;56046;47.270;11.368;2022-11-11T12:01:59;5.23;;;2.90;;
68989;SDS011;56046;47.270;11.368;2022-11-11T12:12:50;5.03;;;2.70;;
68989;SDS011;56046;47.270;11.368;2022-11-11T12:21:16;6.53;;;3.00;;
68989;SDS011;56046;47.270;11.368;2022-11-11T12:24:01;5.38;;;2.70;;
68989;SDS011;56046;47.270;11.368;2022-11-11T12:26:37;4.82;;;2.67;;
68989;SDS011;56046;47.270;11.368;2022-11-11T12:38:48;5.30;;;2.10;;
68989;SDS011;56046;47.270;11.368;2022-11-11T12:40:46;4.55;;;2.45;;
68989;SDS011;56046;47.270;11.368;2022-11-11T12:57:34;4.13;;;1.90;;
68989;SDS011;56046;47.270;11.368;2022-11-11T13:13:42;5.50;;;2.45;;
68989;SDS011;56046;47.270;11.368;2022-11-11T13:15:44;4.40;;;2.03;;
68989;SDS011;56046;47.270;11.368;2022-11-11T13:18:11;6.47;;;2.15;;
68989;SDS011;56046;47.270;11.368;2022-11-11T13:20:49;5.50;;;2.63;;
68989;SDS011;56046;47.270;11.368;2022-11-11T13:23:35;3.97;;;2.35;;
68989;SDS011;56046;47.270;11.368;2022-11-11T13:26:02;6.13;;;2.50;;
68989;SDS011;56046;47.270;11.368;2022-11-11T13:28:32;4.82;;;2.40;;
68989;SDS011;56046;47.270;11.368;2022-11-11T13:34:04;5.05;;;1.75;;
68989;SDS011;56046;47.270;11.368;2022-11-11T13:36:43;3.13;;;1.80;;
68989;SDS011;56046;47.270;11.368;2022-11-11T13:39:22;3.73;;;1.80;;
68989;SDS011;56046;47.270;11.368;2022-11-11T13:41:53;4.35;;;1.77;;
68989;SDS011;56046;47.270;11.368;2022-11-11T13:44:28;5.00;;;1.95;;
68989;SDS011;56046;47.270;11.368;2022-11-11T13:47:04;4.25;;;1.83;;
68989;SDS011;56046;47.270;11.368;2022-11-11T13:49:36;4.07;;;1.70;;
68989;SDS011;56046;47.270;11.368;2022-11-11T13:52:18;3.43;;;1.63;;
68989;SDS011;56046;47.270;11.368;2022-11-11T13:54:55;4.03;;;2.00;;
68989;SDS011;56046;47.270;11.368;2022-11-11T13:57:25;2.88;;;1.60;;
68989;SDS011;56046;47.270;11.368;2022-11-11T14:00:03;5.65;;;1.85;;
68989;SDS011;56046;47.270;11.368;2022-11-11T14:02:34;6.78;;;2.08;;
68989;SDS011;56046;47.270;11.368;2022-11-11T14:12:43;6.13;;;2.10;;
68989;SDS011;56046;47.270;11.368;2022-11-11T14:18:00;5.60;;;2.45;;
68989;SDS011;56046;47.270;11.368;2022-11-11T14:23:22;3.20;;;1.63;;
68989;SDS011;56046;47.270;11.368;2022-11-11T14:26:14;5.05;;;1.80;;
68989;SDS011;56046;47.270;11.368;2022-11-11T14:39:56;4.50;;;2.30;;
68989;SDS011;56046;47.270;11.368;2022-11-11T14:45:02;4.75;;;2.08;;
68989;SDS011;56046;47.270;11.368;2022-11-11T14:49:59;4.28;;;1.77;;
68989;SDS011;56046;47.270;11.368;2022-11-11T15:02:53;4.47;;;1.88;;
68989;SDS011;56046;47.270;11.368;2022-11-11T15:34:02;5.07;;;1.63;;
68989;SDS011;56046;47.270;11.368;2022-11-11T15:39:15;5.28;;;1.90;;
68989;SDS011;56046;47.270;11.368;2022-11-11T15:41:42;5.97;;;1.90;;
68989;SDS011;56046;47.270;11.368;2022-11-11T15:44:16;2.78;;;1.40;;
68989;SDS011;56046;47.270;11.368;2022-11-11T15:46:45;3.97;;;1.83;;
68989;SDS011;56046;47.270;11.368;2022-11-11T15:54:55;4.63;;;1.60;;
68989;SDS011;56046;47.270;11.368;2022-11-11T15:59:55;5.32;;;1.48;;
68989;SDS011;56046;47.270;11.368;2022-11-11T16:02:23;3.95;;;1.52;;
68989;SDS011;56046;47.270;11.368;2022-11-11T16:04:55;4.57;;;2.00;;
68989;SDS011;56046;47.270;11.368;2022-11-11T16:07:49;3.10;;;1.50;;
68989;SDS011;56046;47.270;11.368;2022-11-11T16:10:25;3.83;;;1.80;;
68989;SDS011;56046;47.270;11.368;2022-11-11T16:12:55;3.60;;;1.58;;
68989;SDS011;56046;47.270;11.368;2022-11-11T16:15:24;3.70;;;1.58;;
68989;SDS011;56046;47.270;11.368;2022-11-11T16:18:25;3.00;;;1.38;;
68989;SDS011;56046;47.270;11.368;2022-11-11T16:20:56;2.90;;;1.40;;
68989;SDS011;56046;47.270;11.368;2022-11-11T16:23:26;3.17;;;1.38;;
68989;SDS011;56046;47.270;11.368;2022-11-11T16:25:52;6.25;;;1.70;;
68989;SDS011;56046;47.270;11.368;2022-11-11T16:28:18;2.58;;;1.27;;
68989;SDS011;56046;47.270;11.368;2022-11-11T16:30:44;3.47;;;1.50;;
68989;SDS011;56046;47.270;11.368;2022-11-11T16:33:19;1.73;;;1.08;;
68989;SDS011;56046;47.270;11.368;2022-11-11T16:36:09;2.75;;;1.50;;
68989;SDS011;56046;47.270;11.368;2022-11-11T16:38:35;2.97;;;1.50;;
68989;SDS011;56046;47.270;11.368;2022-11-11T16:41:03;3.70;;;1.48;;
68989;SDS011;56046;47.270;11.368;2022-11-11T16:43:30;4.57;;;2.15;;
68989;SDS011;56046;47.270;11.368;2022-11-11T16:50:57;6.00;;;1.30;;
68989;SDS011;56046;47.270;11.368;2022-11-11T16:53:29;4.15;;;1.48;;
68989;SDS011;56046;47.270;11.368;2022-11-11T16:55:58;4.30;;;1.70;;
68989;SDS011;56046;47.270;11.368;2022-11-11T16:58:26;4.88;;;1.90;;
68989;SDS011;56046;47.270;11.368;2022-11-11T17:00:58;5.28;;;2.53;;
68989;SDS011;56046;47.270;11.368;2022-11-11T17:03:25;8.90;;;3.70;;
68989;SDS011;56046;47.270;11.368;2022-11-11T17:05:58;6.35;;;3.10;;
68989;SDS011;56046;47.270;11.368;2022-11-11T17:11:04;4.32;;;1.80;;
68989;SDS011;56046;47.270;11.368;2022-11-11T17:13:34;6.10;;;1.92;;
68989;SDS011;56046;47.270;11.368;2022-11-11T17:16:00;6.18;;;2.65;;
68989;SDS011;56046;47.270;11.368;2022-11-11T17:18:29;11.15;;;4.82;;
68989;SDS011;56046;47.270;11.368;2022-11-11T17:20:57;4.82;;;1.83;;
68989;SDS011;56046;47.270;11.368;2022-11-11T17:23:23;3.88;;;1.55;;
68989;SDS011;56046;47.270;11.368;2022-11-11T17:25:52;4.67;;;1.30;;
68989;SDS011;56046;47.270;11.368;2022-11-11T17:28:24;3.40;;;1.40;;
68989;SDS011;56046;47.270;11.368;2022-11-11T17:30:50;4.43;;;1.73;;
68989;SDS011;56046;47.270;11.368;2022-11-11T17:33:15;3.23;;;1.10;;
68989;SDS011;56046;47.270;11.368;2022-11-11T17:35:51;3.45;;;1.40;;
68989;SDS011;56046;47.270;11.368;2022-11-11T17:38:17;3.73;;;1.30;;
68989;SDS011;56046;47.270;11.368;2022-11-11T17:40:44;4.05;;;1.30;;
68989;SDS011;56046;47.270;11.368;2022-11-11T17:43:11;5.55;;;1.63;;
68989;SDS011;56046;47.270;11.368;2022-11-11T17:45:37;5.05;;;2.15;;
68989;SDS011;56046;47.270;11.368;2022-11-11T17:48:02;6.43;;;2.10;;
68989;SDS011;56046;47.270;11.368;2022-11-11T17:50:28;4.70;;;1.70;;
68989;SDS011;56046;47.270;11.368;2022-11-11T17:52:54;4.10;;;1.63;;
68989;SDS011;56046;47.270;11.368;2022-11-11T17:55:20;6.70;;;1.75;;
68989;SDS011;56046;47.270;11.368;2022-11-11T17:57:48;3.25;;;1.50;;
68989;SDS011;56046;47.270;11.368;2022-11-11T18:00:14;3.87;;;1.37;;
68989;SDS011;56046;47.270;11.368;2022-11-11T18:02:41;3.08;;;1.30;;